createdAt,value
2022-10-22T16:11:56.955Z,8.20
2022-10-22T16:14:25.321Z,7.10
2022-10-22T16:16:55.648Z,5.72
2022-10-22T16:19:25.433Z,5.22
2022-10-22T16:21:55.466Z,5.50
2022-10-22T16:24:24.107Z,5.80
2022-10-22T16:26:53.334Z,7.07
2022-10-22T16:29:22.844Z,7.53
2022-10-22T16:31:50.959Z,8.05
2022-10-22T16:34:19.186Z,8.15
2022-10-22T16:36:48.870Z,8.80
2022-10-22T16:39:17.144Z,9.10
2022-10-22T16:41:45.338Z,8.47
2022-10-22T16:44:13.473Z,9.32
2022-10-22T16:46:43.309Z,8.80
2022-10-22T16:49:11.820Z,8.70
2022-10-22T16:51:40.765Z,8.80
2022-10-22T16:54:11.451Z,9.10
2022-10-22T16:56:41.220Z,9.27
2022-10-22T16:59:09.487Z,9.75
2022-10-22T17:01:40.997Z,9.60
2022-10-22T17:04:11.049Z,9.90
2022-10-22T17:06:39.328Z,9.35
2022-10-22T17:09:07.507Z,9.77
2022-10-22T17:11:37.213Z,10.43
2022-10-22T17:14:07.468Z,10.10
2022-10-22T17:16:35.734Z,9.85
2022-10-22T17:19:05.381Z,10.00
2022-10-22T17:21:35.392Z,10.52
2022-10-22T17:24:03.525Z,9.63
2022-10-22T17:26:33.320Z,9.70
2022-10-22T17:29:01.845Z,9.90
2022-10-22T17:31:32.620Z,9.80
2022-10-22T17:34:01.127Z,10.65
2022-10-22T17:36:33.329Z,10.13
2022-10-22T17:39:07.243Z,10.73
2022-10-22T17:41:37.609Z,10.30
2022-10-22T17:44:09.104Z,10.85
2022-10-22T17:46:38.480Z,10.57
2022-10-22T17:49:11.592Z,11.13
2022-10-22T17:51:39.888Z,10.90
2022-10-22T17:54:10.322Z,10.75
2022-10-22T17:56:40.165Z,10.30
2022-10-22T17:59:08.551Z,11.05
2022-10-22T18:01:43.376Z,10.88
2022-10-22T18:04:14.358Z,10.93
2022-10-22T18:06:42.527Z,10.68
2022-10-22T18:09:18.180Z,10.10
2022-10-22T18:11:47.685Z,10.20
2022-10-22T18:14:15.974Z,10.30
2022-10-22T18:16:44.028Z,10.18
2022-10-22T18:19:15.386Z,10.30
2022-10-22T18:21:43.512Z,10.40
2022-10-22T18:24:14.588Z,10.05
2022-10-22T18:26:44.862Z,10.05
2022-10-22T18:29:15.864Z,10.20
2022-10-22T18:31:44.027Z,10.07
2022-10-22T18:34:12.325Z,10.63
2022-10-22T18:36:41.996Z,10.13
2022-10-22T18:39:14.361Z,10.77
2022-10-22T18:41:43.417Z,10.52
2022-10-22T18:44:14.209Z,10.40
2022-10-22T18:46:42.285Z,10.43
2022-10-22T18:49:14.071Z,9.98
2022-10-22T18:51:42.097Z,9.85
2022-10-22T18:54:22.588Z,9.45
2022-10-22T18:56:53.567Z,10.10
2022-10-22T18:59:23.484Z,9.55
2022-10-22T19:01:53.695Z,9.13
2022-10-22T19:04:21.807Z,9.88
2022-10-22T19:06:49.851Z,10.15
2022-10-22T19:09:18.406Z,9.90
2022-10-22T19:11:47.097Z,9.90
2022-10-22T19:14:19.413Z,9.68
2022-10-22T19:16:48.237Z,9.75
2022-10-22T19:19:19.006Z,9.90
